Tumbling Shoals, Arkansas
Current Conditions -  °F | °C
As of 5:15 AM on Wednesday 26 Nov 2014 (Local Time) from KBVX Reporting Station
Clear Clear  
Wind Chill: 25°   Ceiling: Unl
Heat Index: 30°   Visibility: 10mi
Dew Point: 23°   Wind: 5mph
Humidity: 75%   Direction: 140°SE
Pressure: 30.08"   Gusts: NA
Location:  35.54°N, 91.97°W
Report Text: KBVX 261115Z AUTO 14004KT 10SM CLR M01/M05 A3008 RMK AO1
Loading
Personal Weather Stations






























Interactive Weather Map New forecast layout! Learn more

10-Day Weather Forecast

Advertisements
Track Severe Weather on mobile